createdAt,value
2017-07-05T00:01:05.182Z,17.80
2017-07-05T00:03:31.143Z,17.70
2017-07-05T00:05:57.125Z,17.70
2017-07-05T00:08:23.082Z,17.50
2017-07-05T00:10:49.033Z,17.40
2017-07-05T00:13:15.014Z,17.50
2017-07-05T00:15:41.001Z,17.30
2017-07-05T00:18:06.987Z,17.30
2017-07-05T00:20:32.940Z,17.30
2017-07-05T00:22:58.950Z,17.30
2017-07-05T00:25:24.893Z,17.20
2017-07-05T00:27:50.848Z,17.00
2017-07-05T00:30:16.821Z,17.00
2017-07-05T00:32:42.793Z,17.00
2017-07-05T00:35:08.786Z,16.90
2017-07-05T00:37:34.736Z,16.90
2017-07-05T00:40:00.710Z,16.90
2017-07-05T00:42:26.698Z,16.90
2017-07-05T00:44:52.642Z,17.00
2017-07-05T00:47:18.602Z,16.90
2017-07-05T00:49:45.326Z,17.00
2017-07-05T00:52:12.018Z,17.10
2017-07-05T00:54:38.007Z,17.10
2017-07-05T00:57:03.989Z,17.10
2017-07-05T00:59:29.990Z,17.10
2017-07-05T01:01:55.936Z,17.00
2017-07-05T01:04:21.894Z,17.00
2017-07-05T01:06:48.622Z,16.80
2017-07-05T01:09:15.310Z,16.80
2017-07-05T01:11:41.286Z,16.80
2017-07-05T01:14:07.261Z,16.80
2017-07-05T01:16:33.951Z,16.80
2017-07-05T01:18:59.958Z,16.80
2017-07-05T01:21:25.922Z,16.80
2017-07-05T01:23:51.860Z,16.90
2017-07-05T01:26:17.832Z,17.00
2017-07-05T01:28:43.778Z,16.90
2017-07-05T01:31:09.753Z,16.90
2017-07-05T01:33:35.762Z,16.90
2017-07-05T01:36:01.745Z,16.90
2017-07-05T01:38:28.439Z,17.00
2017-07-05T01:40:54.382Z,17.00
2017-07-05T01:43:21.114Z,17.10
2017-07-05T01:45:47.805Z,17.10
2017-07-05T01:48:13.757Z,17.10
2017-07-05T01:50:39.749Z,17.10
2017-07-05T01:53:05.683Z,17.10
2017-07-05T01:55:31.635Z,16.90
2017-07-05T01:57:57.639Z,16.90
2017-07-05T02:00:23.590Z,16.90
2017-07-05T02:02:50.342Z,16.90
2017-07-05T02:05:16.288Z,16.90
2017-07-05T02:07:42.242Z,16.90
2017-07-05T02:10:08.228Z,17.00
2017-07-05T02:12:34.261Z,17.00
2017-07-05T02:15:00.271Z,17.00
2017-07-05T02:17:26.223Z,17.00
2017-07-05T02:19:52.245Z,17.00
2017-07-05T02:22:18.249Z,17.00
2017-07-05T02:24:44.193Z,17.00
2017-07-05T02:27:10.927Z,17.10
2017-07-05T02:29:36.881Z,17.00
2017-07-05T02:32:02.829Z,17.00
2017-07-05T02:34:29.586Z,17.10
2017-07-05T02:36:55.538Z,17.10
2017-07-05T02:39:21.494Z,17.10
2017-07-05T02:41:47.493Z,17.10
2017-07-05T02:44:13.434Z,17.00
2017-07-05T02:46:39.390Z,17.10
2017-07-05T02:49:06.120Z,17.10
2017-07-05T02:51:32.830Z,17.10
2017-07-05T02:53:58.830Z,17.10
2017-07-05T02:56:24.815Z,17.10
2017-07-05T02:58:50.763Z,17.10
2017-07-05T03:01:17.507Z,17.10
2017-07-05T03:03:43.466Z,17.10
2017-07-05T03:06:09.418Z,17.10
2017-07-05T03:08:36.160Z,17.30
2017-07-05T03:11:02.134Z,17.30
2017-07-05T03:13:28.106Z,17.40
2017-07-05T03:15:54.086Z,17.30
2017-07-05T03:18:20.031Z,17.20
2017-07-05T03:20:46.026Z,17.20
2017-07-05T03:23:12.046Z,17.10
2017-07-05T03:25:38.015Z,17.10
2017-07-05T03:28:03.974Z,17.10
2017-07-05T03:30:30.006Z,17.10
2017-07-05T03:32:55.959Z,17.00
2017-07-05T03:35:21.926Z,17.00
2017-07-05T03:37:48.650Z,17.00
2017-07-05T03:40:15.350Z,16.90
2017-07-05T03:42:41.302Z,17.00
2017-07-05T03:45:07.278Z,16.90
2017-07-05T03:47:33.236Z,16.90
2017-07-05T03:49:59.280Z,17.00
2017-07-05T03:52:25.241Z,16.90
2017-07-05T03:54:51.219Z,16.90
2017-07-05T03:57:17.295Z,16.90
2017-07-05T03:59:43.243Z,16.90
2017-07-05T04:02:09.942Z,16.90
2017-07-05T04:04:35.947Z,16.90
2017-07-05T04:07:01.898Z,16.90
2017-07-05T04:09:28.604Z,16.80
2017-07-05T04:11:55.376Z,16.80
2017-07-05T04:14:21.335Z,16.80
2017-07-05T04:16:47.369Z,16.90
2017-07-05T04:19:14.067Z,16.90
2017-07-05T04:21:40.019Z,16.80
2017-07-05T04:24:06.010Z,16.90
2017-07-05T04:26:31.987Z,17.00
2017-07-05T04:28:57.962Z,17.10
2017-07-05T04:31:23.963Z,17.20
2017-07-05T04:33:49.942Z,17.20
2017-07-05T04:36:16.640Z,17.30
2017-07-05T04:38:42.629Z,17.30
2017-07-05T04:41:08.574Z,17.30
2017-07-05T04:43:35.288Z,17.40
2017-07-05T04:46:01.294Z,17.40
2017-07-05T04:48:27.246Z,17.30
2017-07-05T04:50:53.280Z,17.30
2017-07-05T04:53:19.232Z,17.40
2017-07-05T04:55:45.922Z,17.40
2017-07-05T04:58:11.911Z,17.40
2017-07-05T05:00:37.864Z,17.40
2017-07-05T05:03:03.871Z,17.30
2017-07-05T05:05:29.838Z,17.30
2017-07-05T05:07:55.827Z,17.30
2017-07-05T05:10:21.808Z,17.30
2017-07-05T05:12:48.498Z,17.40
2017-07-05T05:15:14.481Z,17.40
2017-07-05T05:17:40.494Z,17.50
2017-07-05T05:20:06.438Z,17.40
2017-07-05T05:22:32.391Z,17.50
2017-07-05T05:24:58.414Z,17.50
2017-07-05T05:27:24.370Z,17.60
2017-07-05T05:29:50.326Z,17.60
2017-07-05T05:32:16.347Z,17.70
2017-07-05T05:34:42.307Z,17.70
2017-07-05T05:37:08.258Z,17.80
2017-07-05T05:39:34.299Z,17.80
2017-07-05T05:42:00.282Z,17.90
2017-07-05T05:44:26.251Z,17.90
2017-07-05T05:46:53.020Z,18.00
2017-07-05T05:49:18.985Z,17.90
2017-07-05T05:51:44.943Z,18.00
2017-07-05T05:54:10.953Z,18.00
2017-07-05T05:56:36.958Z,18.10
2017-07-05T05:59:02.936Z,18.10
2017-07-05T06:01:28.983Z,18.20
2017-07-05T06:03:54.931Z,18.20
2017-07-05T06:06:21.630Z,18.40
2017-07-05T06:08:47.618Z,18.40
2017-07-05T06:11:13.574Z,18.50
2017-07-05T06:13:40.315Z,18.60
2017-07-05T06:16:06.274Z,18.60
2017-07-05T06:18:32.238Z,18.70
2017-07-05T06:20:58.263Z,18.80
2017-07-05T06:23:24.218Z,18.90
2017-07-05T06:25:50.178Z,18.90
2017-07-05T06:28:16.182Z,19.00
2017-07-05T06:30:42.143Z,19.00
2017-07-05T06:33:08.127Z,19.10
2017-07-05T06:35:34.364Z,19.10
2017-07-05T06:38:00.418Z,19.20
2017-07-05T06:40:26.404Z,19.30
2017-07-05T06:42:53.130Z,19.50
2017-07-05T06:45:19.846Z,19.50
2017-07-05T06:47:45.807Z,19.50
2017-07-05T06:50:11.806Z,19.70
2017-07-05T06:52:37.758Z,19.80
2017-07-05T06:55:03.745Z,19.90
2017-07-05T06:57:29.769Z,20.00
2017-07-05T06:59:55.723Z,20.10
2017-07-05T07:02:21.998Z,20.20
2017-07-05T07:04:47.954Z,20.20
2017-07-05T07:07:13.918Z,20.30
2017-07-05T07:09:39.938Z,20.40
2017-07-05T07:12:05.887Z,20.50
2017-07-05T07:14:31.835Z,20.60
2017-07-05T07:16:57.879Z,20.70
2017-07-05T07:19:24.576Z,20.80
2017-07-05T07:21:51.283Z,20.80
2017-07-05T07:24:17.295Z,20.80
2017-07-05T07:26:44.009Z,20.80
2017-07-05T07:29:09.962Z,20.80
2017-07-05T07:31:35.970Z,20.90
2017-07-05T07:34:01.918Z,20.80
2017-07-05T07:36:27.890Z,20.80
2017-07-05T07:38:53.903Z,20.70
2017-07-05T07:41:19.862Z,20.70
2017-07-05T07:43:45.917Z,20.70
2017-07-05T07:46:11.866Z,20.60
2017-07-05T07:48:37.816Z,20.70
2017-07-05T07:51:04.568Z,20.80
2017-07-05T07:53:30.522Z,20.70
2017-07-05T07:55:56.482Z,20.80
2017-07-05T07:58:22.489Z,20.90
2017-07-05T08:00:48.459Z,20.90
2017-07-05T08:03:14.415Z,21.00
2017-07-05T08:05:40.443Z,21.10
2017-07-05T08:08:06.385Z,21.10
2017-07-05T08:10:32.338Z,21.10
2017-07-05T08:12:58.335Z,21.10
2017-07-05T08:15:24.280Z,21.20
2017-07-05T08:17:50.310Z,21.20
2017-07-05T08:20:16.276Z,21.30
2017-07-05T08:22:42.266Z,21.30
2017-07-05T08:25:08.261Z,21.40
2017-07-05T08:27:34.959Z,21.30
2017-07-05T08:30:00.942Z,21.20
2017-07-05T08:32:26.891Z,21.20
2017-07-05T08:34:52.908Z,21.10
2017-07-05T08:37:19.598Z,21.10
2017-07-05T08:39:45.647Z,21.10
2017-07-05T08:42:11.650Z,21.20
2017-07-05T08:44:38.342Z,21.20
2017-07-05T08:47:04.292Z,21.20
2017-07-05T08:49:31.035Z,21.10
2017-07-05T08:51:56.995Z,21.10
2017-07-05T08:54:22.946Z,21.10
2017-07-05T08:56:48.948Z,21.10
2017-07-05T08:59:14.911Z,21.20
2017-07-05T09:01:41.605Z,21.30
2017-07-05T09:04:07.631Z,21.30
2017-07-05T09:06:33.579Z,21.30
2017-07-05T09:08:59.526Z,21.30
2017-07-05T09:11:25.519Z,21.20
2017-07-05T09:13:51.510Z,21.20
2017-07-05T09:16:18.236Z,21.20
2017-07-05T09:18:44.993Z,21.10
2017-07-05T09:21:10.987Z,21.10
2017-07-05T09:23:36.934Z,21.20
2017-07-05T09:26:02.918Z,21.30
2017-07-05T09:28:28.868Z,21.50
2017-07-05T09:30:54.810Z,21.80
2017-07-05T09:33:21.550Z,21.80
2017-07-05T09:35:47.552Z,21.80
2017-07-05T09:38:14.243Z,22.00
2017-07-05T09:40:40.230Z,22.00
2017-07-05T09:43:06.218Z,21.80
2017-07-05T09:45:32.223Z,21.80
2017-07-05T09:47:58.172Z,21.70
2017-07-05T09:50:24.163Z,21.70
2017-07-05T09:52:50.106Z,21.60
2017-07-05T09:55:16.146Z,21.90
2017-07-05T09:57:42.141Z,22.20
2017-07-05T10:00:08.825Z,22.10
2017-07-05T10:02:34.783Z,22.10
2017-07-05T10:05:00.769Z,22.20
2017-07-05T10:07:26.709Z,22.30
2017-07-05T10:09:52.699Z,22.40
2017-07-05T10:12:18.690Z,22.60
2017-07-05T10:14:44.640Z,22.80
2017-07-05T10:17:10.619Z,22.90
2017-07-05T10:19:37.314Z,22.80
2017-07-05T10:22:03.297Z,22.80
2017-07-05T10:24:29.283Z,22.60
2017-07-05T10:26:55.230Z,22.40
2017-07-05T10:29:21.201Z,22.30
2017-07-05T10:31:47.211Z,22.40
2017-07-05T10:34:13.157Z,22.50
2017-07-05T10:36:39.138Z,22.50
2017-07-05T10:39:05.138Z,22.50
2017-07-05T10:41:31.090Z,22.30
2017-07-05T10:43:57.063Z,22.40
2017-07-05T10:46:23.059Z,22.30
2017-07-05T10:48:49.012Z,22.50
2017-07-05T10:51:14.963Z,22.80
2017-07-05T10:53:40.977Z,22.70
2017-07-05T10:56:06.926Z,22.90
2017-07-05T10:58:32.890Z,22.70
2017-07-05T11:00:58.862Z,23.00
2017-07-05T11:03:24.811Z,23.40
2017-07-05T11:05:50.811Z,23.00
2017-07-05T11:08:16.767Z,22.80
2017-07-05T11:10:42.719Z,23.10
2017-07-05T11:13:08.990Z,23.40
2017-07-05T11:15:34.936Z,23.50
2017-07-05T11:18:01.626Z,23.50
2017-07-05T11:20:27.606Z,23.50
2017-07-05T11:22:53.568Z,23.10
2017-07-05T11:25:19.562Z,23.40
2017-07-05T11:27:45.519Z,23.30
2017-07-05T11:30:11.462Z,23.50
2017-07-05T11:32:37.484Z,23.60
2017-07-05T11:35:03.483Z,23.20
2017-07-05T11:37:29.439Z,23.40
2017-07-05T11:39:55.386Z,23.40
2017-07-05T11:42:21.399Z,23.30
2017-07-05T11:44:47.354Z,23.40
2017-07-05T11:47:14.046Z,23.20
2017-07-05T11:49:40.035Z,23.10
2017-07-05T11:52:06.014Z,23.50
2017-07-05T11:54:31.962Z,23.60
2017-07-05T11:56:58.231Z,23.50
2017-07-05T11:59:24.183Z,23.70
2017-07-05T12:01:50.143Z,23.90
2017-07-05T12:04:16.181Z,23.60
2017-07-05T12:06:42.122Z,23.70
2017-07-05T12:09:08.071Z,23.80
2017-07-05T12:11:34.064Z,24.30
2017-07-05T12:14:00.787Z,24.30
2017-07-05T12:16:27.483Z,24.30
2017-07-05T12:18:53.494Z,24.30
2017-07-05T12:21:19.453Z,24.60
2017-07-05T12:23:45.443Z,24.30
2017-07-05T12:26:11.407Z,24.50
2017-07-05T12:28:37.454Z,24.60
2017-07-05T12:31:03.406Z,25.00
2017-07-05T12:33:29.359Z,25.50
2017-07-05T12:35:55.338Z,25.80
2017-07-05T12:38:21.286Z,26.10
2017-07-05T12:40:47.291Z,26.20
2017-07-05T12:43:13.238Z,26.10
2017-07-05T12:45:39.192Z,26.00
2017-07-05T12:48:05.187Z,25.50
2017-07-05T12:50:31.135Z,25.10
2017-07-05T12:52:57.839Z,25.30
2017-07-05T12:55:23.838Z,25.20
2017-07-05T12:57:49.807Z,24.70
2017-07-05T13:00:15.812Z,25.60
2017-07-05T13:02:41.815Z,26.10
2017-07-05T13:05:07.775Z,26.80
2017-07-05T13:07:33.721Z,27.30
2017-07-05T13:09:59.722Z,26.60
2017-07-05T13:12:25.661Z,26.30
2017-07-05T13:14:51.760Z,25.20
2017-07-05T13:17:17.771Z,25.50
2017-07-05T13:19:43.742Z,25.50
2017-07-05T13:22:09.695Z,25.00
2017-07-05T13:24:35.702Z,25.60
2017-07-05T13:27:01.655Z,25.90
2017-07-05T13:29:27.615Z,26.20
2017-07-05T13:31:53.626Z,26.40
2017-07-05T13:34:19.600Z,26.90
2017-07-05T13:36:45.551Z,26.50
2017-07-05T13:39:11.565Z,25.90
2017-07-05T13:41:37.554Z,25.80
2017-07-05T13:44:03.513Z,25.50
2017-07-05T13:46:29.498Z,25.30
2017-07-05T13:48:55.451Z,25.30
2017-07-05T13:51:22.134Z,24.60
2017-07-05T13:53:48.139Z,24.60
2017-07-05T13:56:14.103Z,24.50
2017-07-05T13:58:40.839Z,24.50
2017-07-05T14:01:06.815Z,24.40
2017-07-05T14:03:32.767Z,24.40
2017-07-05T14:05:58.745Z,24.30
2017-07-05T14:08:25.474Z,25.20
2017-07-05T14:10:51.450Z,25.20
2017-07-05T14:13:17.484Z,24.70
2017-07-05T14:15:44.200Z,25.10
2017-07-05T14:18:10.178Z,25.10
2017-07-05T14:20:36.162Z,25.50
2017-07-05T14:23:02.162Z,25.60
2017-07-05T14:25:28.109Z,25.60
2017-07-05T14:27:54.071Z,25.40
2017-07-05T14:30:20.077Z,26.30
2017-07-05T14:32:46.044Z,26.60
2017-07-05T14:35:11.998Z,26.40
2017-07-05T14:37:38.003Z,25.30
2017-07-05T14:40:03.998Z,24.80
2017-07-05T14:42:29.954Z,24.50
2017-07-05T14:44:55.930Z,25.70
2017-07-05T14:47:21.926Z,26.20
2017-07-05T14:49:47.887Z,25.90
2017-07-05T14:52:13.864Z,25.20
2017-07-05T14:54:39.879Z,24.70
2017-07-05T14:57:05.835Z,24.60
2017-07-05T14:59:31.789Z,24.20
2017-07-05T15:01:57.787Z,24.50
2017-07-05T15:04:23.750Z,24.30
2017-07-05T15:06:49.710Z,24.40
2017-07-05T15:09:15.713Z,24.70
2017-07-05T15:11:41.677Z,24.80
2017-07-05T15:14:07.622Z,24.50
2017-07-05T15:16:33.626Z,24.70
2017-07-05T15:18:59.574Z,24.20
2017-07-05T15:21:26.323Z,24.10
2017-07-05T15:23:52.306Z,24.10
2017-07-05T15:26:19.042Z,24.50
2017-07-05T15:28:45.072Z,24.50
2017-07-05T15:31:11.027Z,24.50
2017-07-05T15:33:36.998Z,24.70
2017-07-05T15:36:02.991Z,24.90
2017-07-05T15:38:29.670Z,24.90
2017-07-05T15:40:55.619Z,24.90
2017-07-05T15:43:22.375Z,24.70
2017-07-05T15:45:48.317Z,24.60
2017-07-05T15:48:14.257Z,25.00
2017-07-05T15:50:40.251Z,24.80
2017-07-05T15:53:06.238Z,24.70
2017-07-05T15:55:32.943Z,25.00
2017-07-05T15:57:58.938Z,25.00
2017-07-05T16:00:24.931Z,25.10
2017-07-05T16:02:50.885Z,24.90
2017-07-05T16:05:16.863Z,24.90
2017-07-05T16:07:42.883Z,24.90
2017-07-05T16:10:08.839Z,24.70
2017-07-05T16:12:35.526Z,24.90
2017-07-05T16:15:01.519Z,24.80
2017-07-05T16:17:27.499Z,24.70
2017-07-05T16:19:53.458Z,24.20
2017-07-05T16:22:19.459Z,24.50
2017-07-05T16:24:45.432Z,24.60
2017-07-05T16:27:11.398Z,24.10
2017-07-05T16:29:37.390Z,24.10
2017-07-05T16:32:03.341Z,24.20
2017-07-05T16:34:30.034Z,24.50
2017-07-05T16:36:56.056Z,24.50
2017-07-05T16:39:22.815Z,24.30
2017-07-05T16:41:48.773Z,24.30
2017-07-05T16:44:14.771Z,24.50
2017-07-05T16:46:40.726Z,24.50
2017-07-05T16:49:06.708Z,24.60
2017-07-05T16:51:32.695Z,24.30
2017-07-05T16:53:58.670Z,24.30
2017-07-05T16:56:24.671Z,24.30
2017-07-05T16:58:50.629Z,24.20
2017-07-05T17:01:16.627Z,24.50
2017-07-05T17:03:42.581Z,24.50
2017-07-05T17:06:09.277Z,24.30
2017-07-05T17:08:35.287Z,24.20
2017-07-05T17:11:01.310Z,24.20
2017-07-05T17:13:27.274Z,24.20
2017-07-05T17:15:53.986Z,23.80
2017-07-05T17:18:19.986Z,23.80
2017-07-05T17:20:45.992Z,23.60
2017-07-05T17:23:11.963Z,23.90
2017-07-05T17:25:37.919Z,24.00
2017-07-05T17:28:03.898Z,23.80
2017-07-05T17:30:29.855Z,23.80
2017-07-05T17:32:55.895Z,23.70
2017-07-05T17:35:22.646Z,23.80
2017-07-05T17:37:48.621Z,23.80
2017-07-05T17:40:14.630Z,23.60
2017-07-05T17:42:40.603Z,23.60
2017-07-05T17:45:06.559Z,23.60
2017-07-05T17:47:32.560Z,23.40
2017-07-05T17:49:58.539Z,23.10
2017-07-05T17:52:24.517Z,23.10
2017-07-05T17:54:50.514Z,23.30
2017-07-05T17:57:16.527Z,23.30
2017-07-05T17:59:42.565Z,23.40
2017-07-05T18:02:08.535Z,22.80
2017-07-05T18:04:34.580Z,23.00
2017-07-05T18:07:00.542Z,23.00
2017-07-05T18:09:26.486Z,23.10
2017-07-05T18:11:52.482Z,23.10
2017-07-05T18:14:18.494Z,22.90
2017-07-05T18:16:44.464Z,22.90
2017-07-05T18:19:11.563Z,22.60
2017-07-05T18:21:37.565Z,22.60
2017-07-05T18:24:03.598Z,22.60
2017-07-05T18:26:29.546Z,22.40
2017-07-05T18:28:56.244Z,22.50
2017-07-05T18:31:22.316Z,22.50
2017-07-05T18:33:48.279Z,22.50
2017-07-05T18:36:14.986Z,22.50
2017-07-05T18:38:41.755Z,22.50
2017-07-05T18:41:07.750Z,22.50
2017-07-05T18:43:33.753Z,22.30
2017-07-05T18:46:00.450Z,22.40
2017-07-05T18:48:26.414Z,22.40
2017-07-05T18:50:52.422Z,22.40
2017-07-05T18:53:18.379Z,22.40
2017-07-05T18:55:44.351Z,22.20
2017-07-05T18:58:10.402Z,22.00
2017-07-05T19:00:36.363Z,21.80
2017-07-05T19:03:02.339Z,21.70
2017-07-05T19:05:28.334Z,21.50
2017-07-05T19:07:55.031Z,21.60
2017-07-05T19:10:21.038Z,21.60
2017-07-05T19:12:47.007Z,21.60
2017-07-05T19:15:12.988Z,21.50
2017-07-05T19:17:39.731Z,21.40
2017-07-05T19:20:05.716Z,21.40
2017-07-05T19:22:31.665Z,21.50
2017-07-05T19:24:57.664Z,21.40
2017-07-05T19:27:24.385Z,21.30
2017-07-05T19:29:50.379Z,21.30
2017-07-05T19:32:16.383Z,21.30
2017-07-05T19:34:42.340Z,21.20
2017-07-05T19:37:08.370Z,21.10
2017-07-05T19:39:34.383Z,21.00
2017-07-05T19:42:00.338Z,20.90
2017-07-05T19:44:27.027Z,20.80
2017-07-05T19:46:53.022Z,20.80
2017-07-05T19:49:19.023Z,20.80
2017-07-05T19:51:44.998Z,20.80
2017-07-05T19:54:11.691Z,20.70
2017-07-05T19:56:37.680Z,20.70
2017-07-05T19:59:03.633Z,20.50
2017-07-05T20:01:30.366Z,20.40
2017-07-05T20:03:57.068Z,20.40
2017-07-05T20:06:23.027Z,20.40
2017-07-05T20:08:49.043Z,20.40
2017-07-05T20:11:14.993Z,20.30
2017-07-05T20:13:40.994Z,20.30
2017-07-05T20:16:06.942Z,20.20
2017-07-05T20:18:32.890Z,20.20
2017-07-05T20:20:58.897Z,20.20
2017-07-05T20:23:24.854Z,20.10
2017-07-05T20:25:51.567Z,20.00
2017-07-05T20:28:17.555Z,20.00
2017-07-05T20:30:43.501Z,20.00
2017-07-05T20:33:10.231Z,19.90
2017-07-05T20:35:36.187Z,19.80
2017-07-05T20:38:02.134Z,19.80
2017-07-05T20:40:28.875Z,19.70
2017-07-05T20:42:56.148Z,19.70
2017-07-05T20:45:22.460Z,19.60
2017-07-05T20:47:48.492Z,19.70
2017-07-05T20:50:14.488Z,19.60
2017-07-05T20:52:40.498Z,19.60
2017-07-05T20:55:06.552Z,19.50
2017-07-05T20:57:32.555Z,19.60
2017-07-05T20:59:58.542Z,19.40
2017-07-05T21:02:24.677Z,19.40
2017-07-05T21:04:51.457Z,19.30
2017-07-05T21:07:17.501Z,19.30
2017-07-05T21:09:43.559Z,19.30
2017-07-05T21:12:09.568Z,19.20
2017-07-05T21:14:35.560Z,19.20
2017-07-05T21:17:01.596Z,19.20
2017-07-05T21:19:27.597Z,19.00
2017-07-05T21:21:53.618Z,19.00
2017-07-05T21:24:19.709Z,18.90
2017-07-05T21:26:45.707Z,18.80
2017-07-05T21:29:12.512Z,18.80
2017-07-05T21:31:38.643Z,18.80
2017-07-05T21:34:05.388Z,18.80
2017-07-05T21:36:31.389Z,18.80
2017-07-05T21:38:57.423Z,18.80
2017-07-05T21:41:23.428Z,18.80
2017-07-05T21:43:49.482Z,18.90
2017-07-05T21:46:15.485Z,18.80
2017-07-05T21:48:41.477Z,18.80
2017-07-05T21:51:07.533Z,18.60
2017-07-05T21:53:33.523Z,18.60
2017-07-05T21:55:59.529Z,18.50
2017-07-05T21:58:25.578Z,18.40
2017-07-05T22:00:51.581Z,18.40
2017-07-05T22:03:17.573Z,18.40
2017-07-05T22:05:44.376Z,18.50
2017-07-05T22:08:10.368Z,18.50
2017-07-05T22:10:36.352Z,18.50
2017-07-05T22:13:02.393Z,18.40
2017-07-05T22:15:28.401Z,18.40
2017-07-05T22:17:54.444Z,18.30
2017-07-05T22:20:21.277Z,18.10
2017-07-05T22:22:47.265Z,18.10
2017-07-05T22:25:13.261Z,18.10
2017-07-05T22:27:39.292Z,18.10
2017-07-05T22:30:05.344Z,18.10
2017-07-05T22:32:31.349Z,18.10
2017-07-05T22:34:57.391Z,18.10
2017-07-05T22:37:23.410Z,18.10
2017-07-05T22:39:49.401Z,18.10
2017-07-05T22:42:15.432Z,18.20
2017-07-05T22:44:41.416Z,18.20
2017-07-05T22:47:07.405Z,18.20
2017-07-05T22:49:33.468Z,18.10
2017-07-05T22:51:59.476Z,18.10
2017-07-05T22:54:25.483Z,18.00
2017-07-05T22:56:51.552Z,18.00
2017-07-05T22:59:17.571Z,17.90
2017-07-05T23:01:43.593Z,17.90
2017-07-05T23:15:42.361Z,17.60
2017-07-05T23:18:08.372Z,17.60
2017-07-05T23:20:34.381Z,17.60
2017-07-05T23:23:00.378Z,17.60
2017-07-05T23:25:26.352Z,17.60
2017-07-05T23:27:53.124Z,17.50
2017-07-05T23:30:19.111Z,17.50
2017-07-05T23:32:45.139Z,17.50
2017-07-05T23:35:11.095Z,17.60
2017-07-05T23:37:37.047Z,17.60
2017-07-05T23:40:03.113Z,17.60
2017-07-05T23:42:29.077Z,17.50
2017-07-05T23:44:55.078Z,17.40
2017-07-05T23:47:21.048Z,17.30
2017-07-05T23:49:54.906Z,17.10
2017-07-05T23:52:20.866Z,17.10
2017-07-05T23:54:46.867Z,17.10
2017-07-05T23:57:12.818Z,17.10
2017-07-05T23:59:38.777Z,16.90
